Time;durP1;ratioP1;P1;durP2;ratioP2;P2;SDS_P1;SDS_P2;PMS_P1;PMS_P2;Temp;Humidity;BMP_temperature;BMP_pressure;BME280_temperature;BME280_humidity;BME280_pressure;Samples;Min_cycle;Max_cycle;Signal;HPM_P1;HPM_P2
2022/07/04 00:00:18;;;;;;;17.75;13.18;;;;;;;;;;5033668;28;20101;-79
2022/07/04 00:02:45;;;;;;;20.25;14.20;;;;;;;;;;5016948;28;20029;-79
2022/07/04 00:05:11;;;;;;;20.00;12.55;;;;;;;;;;4996104;28;20125;-80
2022/07/04 00:07:38;;;;;;;16.95;12.60;;;;;;;;;;5015307;28;20025;-79
2022/07/04 00:10:05;;;;;;;15.68;12.23;;;;;;;;;;5009304;28;20462;-78
2022/07/04 00:12:31;;;;;;;12.85;11.55;;;;;;;;;;5004716;28;20030;-80
2022/07/04 00:14:57;;;;;;;15.57;13.25;;;;;;;;;;5031588;28;20504;-80
2022/07/04 00:17:23;;;;;;;13.82;12.40;;;;;;;;;;5015706;28;20397;-79
2022/07/04 00:19:49;;;;;;;17.55;12.75;;;;;;;;;;5032979;28;20030;-81
2022/07/04 00:22:15;;;;;;;14.95;12.05;;;;;;;;;;5006685;28;20117;-80
2022/07/04 00:24:41;;;;;;;17.67;11.57;;;;;;;;;;5027121;28;20084;-81
2022/07/04 00:27:07;;;;;;;13.50;11.88;;;;;;;;;;5002941;28;20112;-82
2022/07/04 00:29:34;;;;;;;17.10;13.13;;;;;;;;;;5015707;28;20057;-80
2022/07/04 00:32:00;;;;;;;15.07;12.38;;;;;;;;;;5019167;28;20022;-82
2022/07/04 00:34:27;;;;;;;19.02;12.50;;;;;;;;;;5015438;28;20516;-81
2022/07/04 00:36:53;;;;;;;15.48;12.18;;;;;;;;;;5002428;28;20048;-81
2022/07/04 00:39:19;;;;;;;14.10;11.85;;;640.60;1612.80;;;;;;5014361;28;20018;-82
2022/07/04 00:41:45;;;;;;;20.08;18.02;;;640.50;1612.80;;;;;;5015587;28;20025;-82
2022/07/04 00:44:12;;;;;;;18.75;16.23;;;640.50;1638.40;;;;;;5015376;28;20024;-82
2022/07/04 00:46:38;;;;;;;21.33;19.20;;;640.50;1638.40;;;;;;5015545;28;20017;-82
2022/07/04 00:49:05;;;;;;;23.10;18.00;;;640.50;1638.40;;;;;;5015443;28;20033;-81
2022/07/04 00:51:31;;;;;;;17.02;15.32;;;640.50;1638.40;;;;;;5014965;28;20485;-82
2022/07/04 00:53:57;;;;;;;18.23;15.73;;;640.60;1612.80;;;;;;5015276;28;20029;-81
2022/07/04 00:56:24;;;;;;;17.52;14.02;;;;;;;;;;5015174;28;20040;-82
2022/07/04 00:58:50;;;;;;;18.98;16.83;;;;;;;;;;5015222;28;20017;-80
2022/07/04 01:01:16;;;;;;;17.08;13.38;;;640.60;1638.40;;;;;;5000576;28;20128;-81
2022/07/04 01:03:42;;;;;;;18.42;13.77;;;640.30;1612.80;;;;;;5032561;28;20122;-80
2022/07/04 01:06:09;;;;;;;18.52;12.98;;;;;;;;;;5014700;28;20041;-79
2022/07/04 01:08:36;;;;;;;16.27;14.63;;;;;;;;;;5014619;28;20041;-78
2022/07/04 01:11:02;;;;;;;19.85;14.05;;;;;;;;;;5014307;28;20025;-79
2022/07/04 01:13:28;;;;;;;27.65;21.98;;;;;;;;;;5014619;28;20464;-79
2022/07/04 01:15:53;;;;;;;27.33;21.85;;;615.30;1740.80;;;;;;5014506;28;20503;-81
2022/07/04 01:18:19;;;;;;;25.85;23.02;;;640.00;1740.80;;;;;;5014722;28;20017;-81
2022/07/04 01:20:45;;;;;;;28.33;21.13;;;640.30;1689.60;;;;;;5014308;28;20369;-80
2022/07/04 01:23:11;;;;;;;30.35;17.73;;;;;;;;;;5013548;28;20014;-80
2022/07/04 01:25:37;;;;;;;18.35;14.93;;;640.40;1664.00;;;;;;5005631;28;20029;-82
2022/07/04 01:28:09;;;;;;;21.02;14.70;;;;;;;;;;4995166;28;20377;-81
2022/07/04 01:30:36;;;;;;;15.48;13.32;;;;;;;;;;5017515;28;20021;-79
2022/07/04 01:33:02;;;;;;;19.15;12.80;;;;;;;;;;4994619;28;20022;-78
2022/07/04 01:35:28;;;;;;;18.33;13.75;;;;;;;;;;5027177;28;20121;-81
2022/07/04 01:37:54;;;;;;;16.00;12.90;;;;;;;;;;5014253;28;20420;-78
2022/07/04 01:40:20;;;;;;;16.10;12.77;;;;;;;;;;5031899;28;20057;-80
2022/07/04 01:42:47;;;;;;;16.13;14.25;;;;;;;;;;5014146;28;20021;-80
2022/07/04 01:45:13;;;;;;;16.50;13.75;;;640.10;1715.20;;;;;;5014862;28;20032;-81
2022/07/04 01:47:39;;;;;;;15.90;14.18;;;615.20;1766.40;;;;;;4996796;28;20037;-81
2022/07/04 01:50:07;;;;;;;15.10;13.13;;;615.20;1792.00;;;;;;5004454;28;20473;-81
2022/07/04 01:52:34;;;;;;;16.77;13.68;;;640.10;1740.80;;;;;;5029338;28;20185;-81
2022/07/04 01:55:00;;;;;;;15.02;13.55;;;;;;;;;;5003107;28;20088;-81
2022/07/04 01:57:25;;;;;;;16.02;13.82;;;615.30;1766.40;;;;;;5014395;28;20026;-80
2022/07/04 02:02:36;;;;;;;20.00;13.57;;;615.30;1740.80;;;;;;5032226;28;20036;-82
2022/07/04 02:05:04;;;;;;;15.40;13.27;;;615.30;1740.80;;;;;;5032088;28;20022;-81
2022/07/04 02:07:30;;;;;;;15.45;13.85;;;;;;;;;;5014316;28;20563;-81
2022/07/04 02:09:56;;;;;;;17.02;15.07;;;;;;;;;;5013958;28;20478;-81
2022/07/04 02:15:07;;;;;;;17.05;14.30;;;;;;;;;;5031847;28;20523;-81
2022/07/04 02:17:33;;;;;;;13.90;11.70;;;;;;;;;;5014225;28;20025;-81
2022/07/04 02:19:59;;;;;;;15.40;13.32;;;;;;;;;;5013926;28;20021;-80
2022/07/04 02:22:25;;;;;;;14.95;13.13;;;;;;;;;;5031437;28;20026;-81
2022/07/04 02:24:52;;;;;;;17.63;13.48;;;;;;;;;;5031693;28;20033;-80
2022/07/04 02:27:20;;;;;;;18.48;14.48;;;;;;;;;;5013941;28;20022;-82
2022/07/04 02:29:46;;;;;;;20.48;13.73;;;;;;;;;;5013639;28;20072;-81
2022/07/04 02:32:12;;;;;;;17.30;14.00;;;;;;;;;;5013774;28;20033;-79
2022/07/04 02:34:38;;;;;;;23.13;15.65;;;;;;;;;;5013552;28;20044;-80
2022/07/04 02:37:04;;;;;;;17.50;15.23;;;;;;;;;;5001704;28;20022;-80
2022/07/04 02:39:30;;;;;;;16.45;14.60;;;;;;;;;;5015376;28;20045;-79
2022/07/04 02:41:56;;;;;;;21.70;15.55;;;;;;;;;;4997673;28;20022;-81
2022/07/04 02:44:22;;;;;;;18.67;14.40;;;;;;;;;;5017230;28;20041;-80
2022/07/04 02:46:48;;;;;;;20.17;14.40;;;;;;;;;;5006567;28;20022;-80
2022/07/04 02:49:14;;;;;;;15.68;13.75;;;;;;;;;;5000108;28;20021;-80
2022/07/04 02:51:41;;;;;;;21.10;14.32;;;;;;;;;;5017170;28;20067;-81
2022/07/04 02:54:07;;;;;;;20.33;15.15;;;;;;;;;;5003703;28;20026;-82
2022/07/04 02:56:33;;;;;;;19.23;16.35;;;615.20;1740.80;;;;;;5017905;28;20167;-79
2022/07/04 02:58:59;;;;;;;17.08;15.25;;;;;;;;;;5035199;28;20112;-82
2022/07/04 03:01:25;;;;;;;19.80;16.35;;;;;;;;;;5016825;28;20025;-82
2022/07/04 03:03:51;;;;;;;21.50;15.85;;;;;;;;;;5017111;28;20028;-81
2022/07/04 03:06:18;;;;;;;19.48;16.98;;;;;;;;;;5034289;28;20074;-81
2022/07/04 03:08:44;;;;;;;18.88;15.80;;;;;;;;;;5017292;28;20029;-83
2022/07/04 03:11:10;;;;;;;19.48;15.40;;;;;;;;;;5002054;28;20061;-82
2022/07/04 03:13:36;;;;;;;18.80;16.25;;;;;;;;;;5001667;28;20112;-82
2022/07/04 03:16:02;;;;;;;17.65;15.88;;;;;;;;;;4997448;28;20034;-83
2022/07/04 03:18:28;;;;;;;17.63;15.85;;;;;;;;;;5013566;28;20023;-82
2022/07/04 03:20:55;;;;;;;22.33;16.88;;;;;;;;;;5017503;28;20022;-81
2022/07/04 03:23:21;;;;;;;18.25;14.93;;;;;;;;;;5002835;28;20026;-79
2022/07/04 03:25:47;;;;;;;19.08;15.13;;;;;;;;;;5016826;28;20032;-81
2022/07/04 03:40:06;;;;;;;19.27;16.80;;;;;;;;;;6135165;22;1631654;-91
2022/07/04 03:42:32;;;;;;;23.38;15.93;;;;;;;;;;6158273;23;20020;-79
2022/07/04 03:44:58;;;;;;;23.77;16.33;;;;;;;;;;6133709;23;20036;-79
2022/07/04 03:47:25;;;;;;;24.80;16.08;;;;;;;;;;6133468;23;20005;-80
2022/07/04 03:49:51;;;;;;;17.95;16.00;;;;;;;;;;6132441;23;20001;-78
2022/07/04 03:52:17;;;;;;;21.10;16.73;;;;;;;;;;6134185;23;20002;-80
2022/07/04 03:54:43;;;;;;;19.23;17.23;;;;;;;;;;6134158;23;20035;-77
2022/07/04 03:57:09;;;;;;;21.75;18.98;;;;;;;;;;6132372;23;19998;-78
2022/07/04 03:59:35;;;;;;;22.77;17.85;;;;;;;;;;6133839;23;19998;-77
2022/07/04 04:02:01;;;;;;;18.58;16.73;;;;;;;;;;6133350;23;20029;-79
2022/07/04 04:07:11;;;;;;;21.33;16.92;;;;;;;;;;6132805;23;20013;-79
2022/07/04 04:09:37;;;;;;;19.05;16.63;;;;;;;;;;6133634;23;20048;-78
2022/07/04 04:12:04;;;;;;;30.02;21.70;;;;;;;;;;6133259;23;20077;-78
2022/07/04 04:14:30;;;;;;;36.40;24.40;;;;;;;;;;6131922;23;19998;-78
2022/07/04 04:16:56;;;;;;;25.17;20.83;;;;;;;;;;6133337;23;20017;-79
2022/07/04 04:19:22;;;;;;;29.27;24.85;;;;;;;;;;6133488;23;20097;-79
2022/07/04 04:21:48;;;;;;;27.98;24.73;;;;;;;;;;6134251;23;20009;-78
2022/07/04 04:24:14;;;;;;;23.60;19.17;;;;;;;;;;6133382;23;19998;-79
2022/07/04 04:26:40;;;;;;;34.88;30.92;;;;;;;;;;6133996;23;20017;-78
2022/07/04 04:29:06;;;;;;;22.20;17.55;;;;;;;;;;6132986;23;20006;-79
2022/07/04 04:31:34;;;;;;;23.95;17.15;;;;;;;;;;6133530;23;20000;-78
2022/07/04 04:34:00;;;;;;;24.55;20.17;;;;;;;;;;6133472;23;19997;-79
2022/07/04 04:36:26;;;;;;;27.75;17.17;;;;;;;;;;6133106;23;20029;-78
2022/07/04 04:38:52;;;;;;;33.10;26.55;;;;;;;;;;6132776;23;20098;-78
2022/07/04 04:41:18;;;;;;;29.50;21.88;;;;;;;;;;6129744;23;20017;-78
2022/07/04 04:43:44;;;;;;;27.98;24.80;;;;;;;;;;6155888;23;20064;-79
2022/07/04 04:46:11;;;;;;;19.08;17.10;;;;;;;;;;6156137;23;20001;-80
2022/07/04 04:48:37;;;;;;;21.90;17.77;;;;;;;;;;6155890;23;20009;-81
2022/07/04 04:51:04;;;;;;;27.77;20.55;;;;;;;;;;6156035;23;20002;-78
2022/07/04 04:53:31;;;;;;;20.77;15.45;;;;;;;;;;6155139;23;20157;-79
2022/07/04 04:55:57;;;;;;;32.38;25.50;;;;;;;;;;6155420;23;19997;-79
2022/07/04 04:58:23;;;;;;;24.17;21.77;;;;;;;;;;6155260;23;19998;-76
2022/07/04 05:00:50;;;;;;;28.55;19.52;;;;;;;;;;6155627;23;20068;-79
2022/07/04 05:03:17;;;;;;;23.42;20.33;;;;;;;;;;6155421;23;19998;-78
2022/07/04 05:05:43;;;;;;;24.30;19.17;;;;;;;;;;6154977;23;20471;-78
2022/07/04 05:08:09;;;;;;;28.85;23.45;;;;;;;;;;6155377;23;20013;-78
2022/07/04 05:10:38;;;;;;;33.47;22.60;;;;;;;;;;6155384;23;20506;-77
2022/07/04 05:13:04;;;;;;;21.17;18.75;;;;;;;;;;6154783;23;20031;-79
2022/07/04 05:15:30;;;;;;;23.77;18.25;;;;;;;;;;6154738;23;20084;-78
2022/07/04 05:17:56;;;;;;;24.25;17.77;;;;;;;;;;6155181;23;19998;-78
2022/07/04 05:20:22;;;;;;;23.75;19.00;;;;;;;;;;6155302;23;20049;-78
2022/07/04 05:22:48;;;;;;;38.88;26.00;;;;;;;;;;6155279;23;20005;-77
2022/07/04 05:25:14;;;;;;;28.05;17.45;;;;;;;;;;6155368;23;20005;-77
2022/07/04 05:27:40;;;;;;;22.25;15.43;;;;;;;;;;6154995;23;20085;-78
2022/07/04 05:30:07;;;;;;;29.17;17.55;;;;;;;;;;6154569;23;20040;-78
2022/07/04 05:32:33;;;;;;;32.35;18.38;;;;;;;;;;6155191;23;20308;-78
2022/07/04 05:34:59;;;;;;;30.42;18.00;;;;;;;;;;6154810;23;20077;-78
2022/07/04 05:37:25;;;;;;;28.80;19.70;;;;;;;;;;6155201;23;20000;-78
2022/07/04 05:39:51;;;;;;;32.95;20.98;;;;;;;;;;6154829;23;20021;-77
2022/07/04 05:42:17;;;;;;;31.85;20.38;;;692.10;1433.60;;;;;;6155170;23;20084;-78
2022/07/04 05:44:43;;;;;;;31.02;21.02;;;716.80;1459.20;;;;;;6155220;23;20025;-78
2022/07/04 05:47:08;;;;;;;24.48;18.58;;;692.10;1433.60;;;;;;6155262;23;19997;-77
2022/07/04 05:49:34;;;;;;;24.60;21.50;;;716.90;1459.20;;;;;;6154988;23;20010;-77
2022/07/04 05:52:00;;;;;;;25.23;20.80;;;716.90;1433.60;;;;;;6155301;23;19993;-79
2022/07/04 05:54:26;;;;;;;24.50;21.77;;;717.00;1433.60;;;;;;6156062;23;20004;-81
2022/07/04 05:56:51;;;;;;;28.50;16.30;;;716.80;1459.20;;;;;;6155123;23;20002;-77
2022/07/04 05:59:17;;;;;;;32.25;26.15;;;716.90;1433.60;;;;;;6128069;23;20301;-78
2022/07/04 06:01:43;;;;;;;28.25;22.73;;;717.10;1433.60;;;;;;6155019;23;19998;-77
2022/07/04 06:04:09;;;;;;;37.42;26.23;;;;;;;;;;6128706;23;20425;-78
2022/07/04 06:06:35;;;;;;;27.60;21.90;;;;;;;;;;6154483;23;20065;-78
2022/07/04 06:09:02;;;;;;;31.80;23.83;;;;;;;;;;6153723;23;20036;-77
2022/07/04 06:11:29;;;;;;;28.30;23.20;;;;;;;;;;6154690;23;20073;-76
2022/07/04 06:13:55;;;;;;;29.48;17.67;;;;;;;;;;6154659;23;20364;-78
2022/07/04 06:16:21;;;;;;;26.25;18.02;;;;;;;;;;6128658;23;20013;-81
2022/07/04 06:18:47;;;;;;;20.30;17.05;;;;;;;;;;6155481;23;19998;-80
2022/07/04 06:21:13;;;;;;;23.75;16.60;;;;;;;;;;6155367;23;20414;-80
2022/07/04 06:23:39;;;;;;;25.23;19.23;;;;;;;;;;6155251;23;20001;-80
2022/07/04 06:26:05;;;;;;;23.92;17.52;;;;;;;;;;6155416;23;20004;-82
2022/07/04 06:28:31;;;;;;;21.52;18.60;;;;;;;;;;6155032;23;20006;-81
2022/07/04 06:30:58;;;;;;;26.63;19.17;;;;;;;;;;6155691;23;20317;-81
2022/07/04 06:33:24;;;;;;;26.50;17.55;;;;;;;;;;6155035;23;20029;-81
2022/07/04 06:35:59;;;;;;;19.55;16.58;;;;;;;;;;6155417;23;20059;-80
2022/07/04 06:38:26;;;;;;;27.05;17.83;;;;;;;;;;6155310;23;20076;-80
2022/07/04 06:40:56;;;;;;;20.10;16.88;;;;;;;;;;6129010;23;20124;-80
2022/07/04 06:43:22;;;;;;;28.63;18.88;;;;;;;;;;6154626;23;20005;-78
2022/07/04 06:45:48;;;;;;;22.58;18.95;;;;;;;;;;6154854;23;19998;-81
2022/07/04 06:48:14;;;;;;;27.42;17.23;;;;;;;;;;6154637;23;20011;-78
2022/07/04 06:50:40;;;;;;;23.40;16.80;;;;;;;;;;6154537;23;20073;-80
2022/07/04 06:53:07;;;;;;;26.73;18.77;;;;;;;;;;6155085;23;19997;-82
2022/07/04 06:55:33;;;;;;;19.30;15.73;;;;;;;;;;6154708;23;20302;-81
2022/07/04 06:57:59;;;;;;;25.27;16.20;;;;;;;;;;6155263;23;20000;-81
2022/07/04 07:00:26;;;;;;;25.73;17.92;;;;;;;;;;6155004;23;20072;-81
2022/07/04 07:02:52;;;;;;;29.63;18.40;;;;;;;;;;6154842;23;20049;-80
2022/07/04 07:05:18;;;;;;;26.45;18.80;;;;;;;;;;6154933;23;19994;-80
2022/07/04 07:07:44;;;;;;;33.90;22.10;;;;;;;;;;6154713;23;20076;-81
2022/07/04 07:10:10;;;;;;;20.65;17.25;;;;;;;;;;6154370;23;20001;-79
2022/07/04 07:12:36;;;;;;;27.25;17.88;;;;;;;;;;6154780;23;19997;-79
2022/07/04 07:15:02;;;;;;;20.85;15.32;;;;;;;;;;6154141;23;20004;-79
2022/07/04 07:17:28;;;;;;;20.48;16.92;;;;;;;;;;6154689;23;19997;-78
2022/07/04 07:19:55;;;;;;;17.27;13.60;;;;;;;;;;6128501;23;20053;-79
2022/07/04 07:22:21;;;;;;;20.13;16.10;;;;;;;;;;6128243;23;20001;-80
2022/07/04 07:24:47;;;;;;;23.27;15.95;;;;;;;;;;6154754;23;20001;-80
2022/07/04 07:27:13;;;;;;;19.42;13.55;;;;;;;;;;6154245;23;20005;-80
2022/07/04 07:29:39;;;;;;;23.95;14.48;;;;;;;;;;6154915;23;20017;-80
2022/07/04 07:32:06;;;;;;;18.77;13.63;;;;;;;;;;6128273;23;20004;-76
2022/07/04 07:34:32;;;;;;;17.70;13.50;;;;;;;;;;6128462;23;20024;-79
2022/07/04 07:36:58;;;;;;;22.58;13.07;;;;;;;;;;6128330;23;20005;-77
2022/07/04 07:39:24;;;;;;;18.08;15.00;;;;;;;;;;6128479;23;20002;-79
2022/07/04 07:41:50;;;;;;;18.60;13.05;;;;;;;;;;6129237;23;20017;-79
2022/07/04 07:44:16;;;;;;;13.95;12.10;;;;;;;;;;6128535;23;20456;-80
2022/07/04 07:46:43;;;;;;;15.00;11.10;;;;;;;;;;6129351;23;20009;-79
2022/07/04 07:49:09;;;;;;;16.80;12.40;;;;;;;;;;6128874;23;20018;-80
2022/07/04 07:51:35;;;;;;;15.98;11.32;;;;;;;;;;6128408;23;20001;-79
2022/07/04 07:54:01;;;;;;;16.98;13.10;;;;;;;;;;6128560;23;19994;-79
2022/07/04 07:56:28;;;;;;;28.83;13.40;;;;;;;;;;6128496;23;20002;-79
2022/07/04 07:58:54;;;;;;;18.92;13.05;;;;;;;;;;6127682;23;20006;-78
2022/07/04 08:01:23;;;;;;;17.23;12.70;;;;;;;;;;6154153;23;20009;-78
2022/07/04 08:06:34;;;;;;;19.67;13.20;;;;;;;;;;6153200;23;20032;-77
2022/07/04 08:09:00;;;;;;;16.00;13.95;;;;;;;;;;6153847;23;20014;-77
2022/07/04 08:11:26;;;;;;;16.88;13.00;;;;;;;;;;6127729;23;20494;-78
2022/07/04 08:13:52;;;;;;;27.83;19.58;;;;;;;;;;6128537;23;20006;-81
2022/07/04 08:16:19;;;;;;;14.18;12.73;;;;;;;;;;6130290;23;20001;-79
2022/07/04 08:18:45;;;;;;;19.98;17.38;;;;;;;;;;6130550;23;20063;-82
2022/07/04 08:21:13;;;;;;;19.70;12.50;;;794.30;844.80;;;;;;6130803;23;20006;-81
2022/07/04 08:23:39;;;;;;;25.33;16.00;;;794.10;844.80;;;;;;6130217;23;20008;-79
2022/07/04 08:26:05;;;;;;;16.10;12.57;;;794.10;870.40;;;;;;6130116;23;20028;-81
2022/07/04 08:28:31;;;;;;;24.73;20.73;;;794.30;870.40;;;;;;6130574;23;20021;-81
2022/07/04 08:30:57;;;;;;;21.05;17.27;;;794.30;844.80;;;;;;6130123;23;20056;-80
2022/07/04 08:33:24;;;;;;;22.33;17.63;;;794.30;870.40;;;;;;6130586;23;19997;-80
2022/07/04 08:35:50;;;;;;;20.48;16.70;;;794.30;870.40;;;;;;6130168;23;20440;-79
2022/07/04 08:38:17;;;;;;;22.50;20.05;;;794.30;870.40;;;;;;6130269;23;20089;-81
2022/07/04 08:40:43;;;;;;;22.80;14.52;;;794.40;844.80;;;;;;6129994;23;20463;-81
2022/07/04 08:43:13;;;;;;;24.00;14.68;;;819.20;844.80;;;;;;6130272;23;19998;-79
2022/07/04 08:45:40;;;;;;;19.90;14.15;;;819.20;844.80;;;;;;6130069;23;20088;-80
2022/07/04 08:48:08;;;;;;;17.77;14.15;;;;;;;;;;6130142;23;20402;-80
2022/07/04 08:50:38;;;;;;;27.50;18.10;;;;;;;;;;6129284;23;20068;-79
2022/07/04 08:53:10;;;;;;;18.15;13.93;;;;;;;;;;6154668;23;20004;-78
2022/07/04 08:58:30;;;;;;;26.08;21.73;;;;;;;;;;6155536;23;20012;-77
2022/07/04 09:00:57;;;;;;;18.55;16.02;;;;;;;;;;6155943;23;20007;-80
2022/07/04 09:03:24;;;;;;;23.42;20.88;;;819.70;742.40;;;;;;6136423;23;20115;-81
2022/07/04 09:05:50;;;;;;;15.55;13.93;;;819.50;768.00;;;;;;6130134;23;19998;-80
2022/07/04 09:08:16;;;;;;;23.35;18.40;;;819.40;768.00;;;;;;6129247;23;20513;-78
2022/07/04 09:10:42;;;;;;;16.80;13.32;;;819.50;793.60;;;;;;6129656;23;20001;-79
2022/07/04 09:13:09;;;;;;;34.67;30.65;;;;;;;;;;6129484;23;20072;-84
2022/07/04 09:15:36;;;;;;;46.65;41.80;;;;;;;;;;6130098;23;20041;-84
2022/07/04 09:18:03;;;;;;;29.48;15.20;;;;;;;;;;6129782;23;19998;-83
2022/07/04 09:20:30;;;;;;;29.92;21.27;;;;;;;;;;6155823;23;20000;-80
2022/07/04 09:22:56;;;;;;;30.35;14.13;;;;;;;;;;6129547;23;20025;-80
2022/07/04 09:25:23;;;;;;;29.48;26.33;;;;;;;;;;6155481;23;20069;-80
2022/07/04 09:27:53;;;;;;;49.28;42.72;;;;;;;;;;6129755;23;20418;-85
2022/07/04 09:30:21;;;;;;;27.70;24.65;;;;;;;;;;6130137;23;19998;-79
2022/07/04 09:32:50;;;;;;;35.67;31.52;;;;;;;;;;6155267;23;20002;-77
2022/07/04 09:35:18;;;;;;;54.28;46.03;;;;;;;;;;6155045;23;19997;-79
2022/07/04 09:37:45;;;;;;;38.47;31.85;;;;;;;;;;6155573;23;20009;-83
2022/07/04 09:40:20;;;;;;;27.88;20.92;;;;;;;;;;6155866;23;19998;-81
2022/07/04 09:42:46;;;;;;;27.17;17.38;;;;;;;;;;6128495;23;20017;-78
2022/07/04 09:45:12;;;;;;;22.63;15.25;;;845.30;665.60;;;;;;6129320;23;20005;-81
2022/07/04 09:47:40;;;;;;;18.45;15.65;;;845.20;665.60;;;;;;6129325;23;20001;-83
2022/07/04 09:50:13;;;;;;;25.15;21.77;;;845.40;665.60;;;;;;6155388;23;20008;-81
2022/07/04 09:52:45;;;;;;;20.20;15.60;;;;;;;;;;6155053;23;20072;-79
2022/07/04 09:55:11;;;;;;;35.83;27.43;;;;;;;;;;6127566;23;20009;-79
2022/07/04 09:57:37;;;;;;;22.45;13.98;;;;;;;;;;6128631;23;20433;-81
2022/07/04 10:00:24;;;;;;;36.67;28.70;;;;;;;;;;6129314;23;20064;-80
2022/07/04 10:02:51;;;;;;;29.90;21.70;;;;;;;;;;6126295;23;20001;-79
2022/07/04 10:05:27;;;;;;;17.92;15.77;;;;;;;;;;6152930;23;20009;-79
2022/07/04 10:07:57;;;;;;;13.70;10.10;;;;;;;;;;6127141;23;20354;-77
2022/07/04 10:10:25;;;;;;;15.45;10.88;;;;;;;;;;6152869;23;20006;-77
2022/07/04 10:12:52;;;;;;;17.63;10.77;;;;;;;;;;6152440;23;20005;-80
2022/07/04 10:15:19;;;;;;;15.85;11.45;;;;;;;;;;6153173;23;20072;-79
2022/07/04 10:17:45;;;;;;;28.52;11.68;;;;;;;;;;6153001;23;19998;-79
2022/07/04 10:20:12;;;;;;;20.08;12.63;;;;;;;;;;6128282;23;20008;-77
2022/07/04 10:22:38;;;;;;;18.20;10.77;;;;;;;;;;6128523;23;20032;-80
2022/07/04 10:25:05;;;;;;;14.70;11.27;;;;;;;;;;6154735;23;20047;-78
2022/07/04 10:27:31;;;;;;;15.60;9.88;;;;;;;;;;6128464;23;20060;-79
2022/07/04 10:30:02;;;;;;;14.18;10.40;;;;;;;;;;6128754;23;20009;-80
2022/07/04 10:32:28;;;;;;;16.85;10.15;;;;;;;;;;6154702;23;20012;-78
2022/07/04 10:34:54;;;;;;;13.75;10.43;;;;;;;;;;6154414;23;20001;-80
2022/07/04 10:37:21;;;;;;;13.07;9.85;;;;;;;;;;6153871;23;20445;-79
2022/07/04 10:39:47;;;;;;;15.73;10.13;;;;;;;;;;6128143;23;20005;-76
2022/07/04 10:42:23;;;;;;;14.45;10.02;;;;;;;;;;6127931;23;20943;-78
2022/07/04 10:44:50;;;;;;;12.32;10.50;;;;;;;;;;6154372;23;20005;-78
2022/07/04 10:47:30;;;;;;;16.05;11.25;;;;;;;;;;6154382;23;20046;-78
2022/07/04 10:49:57;;;;;;;13.57;9.15;;;;;;;;;;6128145;23;20299;-78
2022/07/04 10:52:23;;;;;;;12.23;10.88;;;;;;;;;;6151746;23;19998;-78
2022/07/04 10:54:49;;;;;;;16.92;10.10;;;;;;;;;;6154566;23;20017;-78
2022/07/04 10:57:19;;;;;;;16.35;10.35;;;;;;;;;;6128518;23;20006;-82
2022/07/04 10:59:59;;;;;;;11.40;10.23;;;;;;;;;;6129055;23;20437;-81
2022/07/04 11:02:29;;;;;;;13.93;10.75;;;;;;;;;;6128825;23;20068;-80
2022/07/04 11:04:58;;;;;;;13.18;9.02;;;;;;;;;;6128903;23;20005;-81
2022/07/04 11:07:30;;;;;;;17.30;9.82;;;871.10;460.80;;;;;;6128599;23;20106;-80
2022/07/04 11:10:21;;;;;;;24.97;12.47;;;870.90;460.80;;;;;;6128316;23;20033;-77
2022/07/04 11:12:55;;;;;;;12.60;8.07;;;870.50;460.80;;;;;;6129013;23;19998;-83
2022/07/04 11:15:27;;;;;;;9.38;8.48;;;870.60;460.80;;;;;;6129099;23;20036;-79
2022/07/04 11:17:56;;;;;;;17.75;10.23;;;845.60;460.80;;;;;;6128346;23;20009;-84
2022/07/04 11:20:23;;;;;;;14.52;9.55;;;845.60;486.40;;;;;;6128508;23;20006;-84
2022/07/04 11:22:49;;;;;;;17.83;9.40;;;845.70;435.20;;;;;;6128303;23;20002;-79
2022/07/04 11:25:15;;;;;;;15.35;9.32;;;845.70;460.80;;;;;;6128566;23;20002;-79
2022/07/04 11:27:41;;;;;;;15.52;8.95;;;845.60;460.80;;;;;;6128157;23;20481;-79
2022/07/04 11:30:08;;;;;;;19.30;9.43;;;870.60;435.20;;;;;;6128433;23;20101;-78
2022/07/04 11:32:36;;;;;;;29.05;10.45;;;870.90;435.20;;;;;;6128599;23;20005;-77
2022/07/04 11:35:04;;;;;;;16.23;8.45;;;871.10;435.20;;;;;;6128642;23;20084;-78
2022/07/04 11:37:30;;;;;;;18.75;10.57;;;896.00;384.00;;;;;;6128727;23;19998;-77
2022/07/04 11:45:49;;;;;;;17.38;11.40;;;871.30;460.80;;;;;;6154261;23;20105;-79
2022/07/04 11:48:25;;;;;;;17.65;10.95;;;870.70;460.80;;;;;;6128295;23;20507;-77
2022/07/04 11:50:51;;;;;;;16.70;10.93;;;845.70;512.00;;;;;;6129602;23;20032;-78
2022/07/04 11:53:17;;;;;;;15.27;9.85;;;870.40;486.40;;;;;;6156485;23;19997;-78
2022/07/04 11:55:53;;;;;;;20.50;10.05;;;870.40;486.40;;;;;;6129896;23;20310;-79
2022/07/04 11:58:19;;;;;;;22.13;9.48;;;870.70;486.40;;;;;;6130718;23;20088;-76
2022/07/04 12:00:44;;;;;;;13.30;10.13;;;870.70;486.40;;;;;;6156239;23;20001;-80
2022/07/04 12:03:10;;;;;;;15.45;9.77;;;870.70;460.80;;;;;;6155800;23;20033;-79
2022/07/04 12:05:37;;;;;;;24.38;11.35;;;870.70;460.80;;;;;;6156169;23;20140;-77
2022/07/04 12:08:05;;;;;;;15.15;9.88;;;870.80;460.80;;;;;;6129371;23;20013;-77
2022/07/04 12:10:31;;;;;;;80.30;71.88;;;870.90;435.20;;;;;;6129644;23;20060;-79
2022/07/04 12:12:58;;;;;;;70.28;57.15;;;870.70;460.80;;;;;;6129463;23;20084;-79
2022/07/04 12:15:35;;;;;;;44.10;36.60;;;870.60;435.20;;;;;;6155710;23;20417;-80
2022/07/04 12:18:01;;;;;;;87.82;78.57;;;870.40;435.20;;;;;;6155599;23;20106;-79
2022/07/04 12:20:28;;;;;;;110.53;98.80;;;870.60;460.80;;;;;;6129335;23;20001;-78
2022/07/04 12:22:56;;;;;;;61.85;48.78;;;870.60;460.80;;;;;;6155525;23;19998;-78
2022/07/04 12:25:27;;;;;;;55.53;49.17;;;870.60;435.20;;;;;;6155694;23;20001;-78
2022/07/04 12:27:57;;;;;;;68.13;60.45;;;870.60;435.20;;;;;;6154969;23;20388;-78
2022/07/04 12:30:25;;;;;;;273.05;244.30;;;870.70;435.20;;;;;;6155078;23;20060;-79
2022/07/04 12:32:53;;;;;;;113.93;101.85;;;870.90;409.60;;;;;;6155335;23;19994;-79
2022/07/04 12:35:44;;;;;;;98.30;84.15;;;870.90;358.40;;;;;;6155687;23;19998;-79
2022/07/04 12:38:13;;;;;;;103.35;92.45;;;871.10;332.80;;;;;;6129085;23;20009;-78
2022/07/04 12:41:07;;;;;;;49.65;43.65;;;871.10;307.20;;;;;;6155315;23;19997;-79
2022/07/04 12:43:42;;;;;;;37.53;29.88;;;871.20;307.20;;;;;;6155115;23;20064;-78
2022/07/04 12:46:13;;;;;;;74.50;66.40;;;871.20;307.20;;;;;;6154891;23;20006;-78
2022/07/04 12:48:40;;;;;;;15.95;9.38;;;871.10;307.20;;;;;;6129818;23;20021;-79
2022/07/04 12:51:15;;;;;;;12.45;8.98;;;871.30;307.20;;;;;;6129785;23;20002;-78
2022/07/04 12:53:43;;;;;;;16.25;9.23;;;871.30;281.60;;;;;;6129563;23;20006;-77
2022/07/04 12:56:10;;;;;;;14.05;9.55;;;896.10;307.20;;;;;;6129696;23;20032;-80
2022/07/04 12:58:36;;;;;;;18.50;9.43;;;896.20;281.60;;;;;;6129723;23;20002;-79
2022/07/04 13:01:03;;;;;;;12.82;7.60;;;896.30;281.60;;;;;;6129318;23;20092;-79
2022/07/04 13:03:28;;;;;;;23.20;10.50;;;896.30;256.00;;;;;;6127994;23;20002;-77
2022/07/04 13:05:57;;;;;;;12.75;8.68;;;896.30;281.60;;;;;;6129392;23;20012;-77
2022/07/04 13:08:23;;;;;;;14.65;9.05;;;896.40;256.00;;;;;;6129202;23;20385;-75
2022/07/04 13:12:23;;;;;;;15.80;8.18;;;896.60;256.00;;;;;;6128905;23;19997;-76
2022/07/04 13:13:34;;;;;;;11.27;8.40;;;;;;;;;;6154990;23;19999;-78
2022/07/04 13:16:00;;;;;;;11.52;8.75;;;;;;;;;;6129536;23;20025;-77
2022/07/04 13:18:26;;;;;;;11.60;9.85;;;;;;;;;;6129515;23;20056;-77
2022/07/04 13:20:53;;;;;;;10.88;9.18;;;;;;;;;;6128931;23;20009;-82
2022/07/04 13:23:19;;;;;;;14.95;9.05;;;;;;;;;;6129783;23;19994;-83
2022/07/04 13:25:45;;;;;;;12.30;8.40;;;;;;;;;;6155742;23;20064;-81
2022/07/04 13:28:11;;;;;;;14.02;9.30;;;;;;;;;;6130377;23;20437;-82
2022/07/04 13:30:37;;;;;;;10.80;7.90;;;;;;;;;;6130114;23;20088;-80
2022/07/04 13:33:03;;;;;;;13.02;9.18;;;;;;;;;;6129417;23;20333;-77
2022/07/04 13:35:29;;;;;;;13.30;8.15;;;;;;;;;;6128921;23;20009;-77
2022/07/04 13:37:55;;;;;;;13.00;8.88;;;;;;;;;;6155165;23;20001;-76
2022/07/04 13:40:21;;;;;;;13.63;8.57;;;;;;;;;;6155392;23;20476;-77
2022/07/04 13:42:59;;;;;;;12.20;8.52;;;;;;;;;;6155157;23;20433;-80
2022/07/04 13:45:26;;;;;;;17.30;9.98;;;;;;;;;;6128491;23;20433;-76
2022/07/04 13:47:52;;;;;;;15.02;9.80;;;;;;;;;;6154250;23;20037;-78
2022/07/04 13:50:18;;;;;;;13.75;8.88;;;;;;;;;;6154794;23;19997;-78
2022/07/04 13:52:44;;;;;;;13.93;9.05;;;;;;;;;;6129714;23;20060;-82
2022/07/04 13:55:11;;;;;;;13.00;9.40;;;;;;;;;;6129299;23;20005;-79
2022/07/04 13:57:37;;;;;;;16.67;10.07;;;;;;;;;;6154982;23;20005;-79
2022/07/04 14:00:07;;;;;;;13.13;10.00;;;;;;;;;;6129000;23;20116;-79
2022/07/04 14:02:34;;;;;;;17.98;10.30;;;;;;;;;;6104027;23;20009;-79
2022/07/04 14:05:00;;;;;;;14.68;9.88;;;;;;;;;;6155500;23;20051;-77
2022/07/04 14:07:27;;;;;;;19.20;10.02;;;;;;;;;;6155433;23;20048;-82